Time;durP1;ratioP1;P1;durP2;ratioP2;P2;SDS_P1;SDS_P2;PMS_P1;PMS_P2;Temp;Humidity;BMP_temperature;BMP_pressure;BME280_temperature;BME280_humidity;BME280_pressure;Samples;Min_cycle;Max_cycle;Signal;HPM_P1;HPM_P2
2022/04/06 00:01:03;;;;;;;21.50;11.73;;;;;;;2.30;66.27;93064.16;5128145;27;21495;-52
2022/04/06 00:03:28;;;;;;;12.45;8.48;;;;;;;2.15;65.99;93061.75;5128188;27;20118;-49
2022/04/06 00:05:54;;;;;;;4.53;3.75;;;;;;;1.88;66.16;93059.19;5124951;27;20027;-49
2022/04/06 00:08:19;;;;;;;6.55;3.70;;;;;;;1.74;66.00;93060.22;5090696;28;20024;-50
2022/04/06 00:10:46;;;;;;;8.68;5.50;;;;;;;1.67;66.53;93066.94;5094066;28;20024;-50
2022/04/06 00:13:12;;;;;;;8.55;5.20;;;;;;;1.75;66.92;93067.16;5096030;28;20023;-47
2022/04/06 00:15:37;;;;;;;14.85;9.57;;;;;;;1.77;67.70;93067.41;5097749;28;20024;-47
2022/04/06 00:18:03;;;;;;;24.45;13.32;;;;;;;1.80;68.03;93064.41;5096694;28;20051;-48
2022/04/06 00:20:28;;;;;;;32.72;19.80;;;;;;;1.72;67.20;93070.88;5097582;28;20137;-50
2022/04/06 00:22:53;;;;;;;33.58;18.35;;;;;;;1.75;68.14;93067.16;5093926;28;20024;-52
2022/04/06 00:25:19;;;;;;;46.05;21.90;;;;;;;1.75;67.72;93065.19;5105248;28;20042;-50
2022/04/06 00:27:44;;;;;;;35.70;18.55;;;;;;;1.65;68.01;93060.50;5107340;28;20416;-54
2022/04/06 00:30:11;;;;;;;28.40;16.55;;;;;;;1.75;68.60;93075.31;5107199;28;20073;-49
2022/04/06 00:32:36;;;;;;;31.00;17.15;;;;;;;1.60;68.61;93070.19;5107175;28;20023;-49
2022/04/06 00:37:46;;;;;;;24.85;15.23;;;;;;;1.54;68.75;93067.47;5107561;28;20035;-50
2022/04/06 00:40:12;;;;;;;32.08;14.90;;;;;;;1.45;68.44;93067.75;5106758;28;20016;-51
2022/04/06 00:42:37;;;;;;;18.58;12.40;;;;;;;1.65;68.41;93072.13;5104898;28;20488;-50
2022/04/06 00:45:03;;;;;;;14.05;8.00;;;;;;;1.45;68.25;93073.19;5106741;28;20118;-49
2022/04/06 00:47:29;;;;;;;13.48;7.95;;;;;;;1.30;68.13;93078.16;5106956;28;20024;-54
2022/04/06 00:49:54;;;;;;;13.93;8.45;;;;;;;1.31;66.93;93071.50;5107114;28;20016;-49
2022/04/06 00:52:20;;;;;;;9.93;6.70;;;;;;;1.50;67.64;93074.41;5107023;28;20031;-47
2022/04/06 00:54:46;;;;;;;9.52;6.90;;;;;;;1.44;67.29;93060.84;5107132;28;20389;-46
2022/04/06 00:57:13;;;;;;;23.80;6.65;;;;;;;1.43;68.42;93064.03;5105545;28;20024;-49
2022/04/06 00:59:41;;;;;;;8.15;5.53;;;;;;;1.35;67.59;93077.44;5106725;28;20036;-51
2022/04/06 01:02:06;;;;;;;11.88;6.05;;;;;;;1.33;68.49;93074.47;5092554;28;20075;-50
2022/04/06 01:04:32;;;;;;;7.53;5.63;;;;;;;1.19;68.29;93080.91;5092803;28;20047;-50
2022/04/06 01:06:57;;;;;;;12.93;7.85;;;;;;;0.65;69.46;93071.59;5093013;28;20035;-50
2022/04/06 01:09:22;;;;;;;13.25;8.30;;;;;;;0.71;69.94;93078.47;5091583;28;20020;-50
2022/04/06 01:11:51;;;;;;;9.70;7.30;;;;;;;0.95;70.04;93072.56;5093256;28;20086;-46
2022/04/06 01:14:18;;;;;;;10.17;7.27;;;;;;;0.81;70.33;93073.56;5092882;28;20020;-47
2022/04/06 01:16:56;;;;;;;11.43;5.47;;;;;;;0.70;69.91;93073.56;5092715;28;20464;-46
2022/04/06 01:19:22;;;;;;;13.38;9.40;;;;;;;0.73;69.92;93080.72;5092805;28;20413;-47
2022/04/06 01:21:47;;;;;;;17.73;11.35;;;;;;;0.69;69.92;93072.09;5093105;28;20032;-49
2022/04/06 01:24:13;;;;;;;15.23;7.90;;;;;;;0.73;70.24;93070.59;5092837;28;20035;-51
2022/04/06 01:26:38;;;;;;;19.70;11.88;;;;;;;0.74;69.76;93077.50;5092367;28;20444;-50
2022/04/06 01:29:04;;;;;;;13.48;8.32;;;;;;;0.48;70.56;93074.28;5092507;28;20038;-52
2022/04/06 01:31:29;;;;;;;15.18;8.10;;;;;;;0.52;71.74;93069.34;5083125;28;20028;-53
2022/04/06 01:33:54;;;;;;;12.50;8.50;;;;;;;0.68;70.89;93070.59;5092556;28;20074;-52
2022/04/06 01:36:20;;;;;;;12.15;8.55;;;;;;;0.88;70.30;93073.06;5105620;28;20023;-52
2022/04/06 01:38:45;;;;;;;14.52;8.48;;;;;;;0.98;69.81;93073.53;5112783;28;20026;-51
2022/04/06 01:41:11;;;;;;;14.95;9.25;;;;;;;0.78;70.42;93069.84;5112990;28;20080;-51
2022/04/06 01:43:36;;;;;;;10.40;7.03;;;;;;;0.60;70.88;93067.63;5103459;28;20028;-51
2022/04/06 01:46:02;;;;;;;8.82;6.22;;;;;;;0.60;70.88;93064.94;5092028;28;20031;-51
2022/04/06 01:48:27;;;;;;;10.05;5.65;;;;;;;0.65;70.40;93072.31;5092410;28;20028;-53
2022/04/06 01:53:37;;;;;;;10.73;7.13;;;;;;;0.69;70.18;93070.09;5092375;28;20428;-54
2022/04/06 01:56:02;;;;;;;10.80;7.22;;;;;;;0.24;70.65;93074.00;5093266;28;20019;-48
2022/04/06 01:58:28;;;;;;;16.85;9.68;;;;;;;0.54;70.87;93068.88;5099479;28;20492;-49
2022/04/06 02:00:53;;;;;;;17.00;11.18;;;;;;;0.74;70.04;93079.47;5102270;28;20496;-50
2022/04/06 02:03:19;;;;;;;16.42;10.70;;;;;;;0.84;70.00;93074.53;5100178;28;20047;-49
2022/04/06 02:05:46;;;;;;;15.85;10.55;;;;;;;0.66;69.29;93045.91;5098801;28;20028;-55
2022/04/06 02:08:11;;;;;;;19.00;11.52;;;;;;;0.92;68.95;93078.97;5112159;28;20507;-56
2022/04/06 02:10:39;;;;;;;18.98;10.90;;;;;;;1.00;69.34;93073.78;5112303;28;20023;-56
2022/04/06 02:13:05;;;;;;;23.60;12.45;;;;;;;0.82;69.63;93069.59;5111521;28;20144;-58
2022/04/06 02:15:30;;;;;;;17.40;8.65;;;;;;;0.56;70.30;93066.41;5095597;28;20042;-52
2022/04/06 02:17:56;;;;;;;15.77;8.70;;;;;;;0.54;70.52;93071.59;5091716;28;20099;-53
2022/04/06 02:20:22;;;;;;;14.02;6.82;;;;;;;0.29;70.13;93075.25;5091527;28;20054;-53
2022/04/06 02:22:47;;;;;;;18.42;9.73;;;;;;;0.39;70.46;93068.38;5091492;28;20023;-53
2022/04/06 02:25:13;;;;;;;17.98;10.18;;;;;;;0.45;69.87;93069.09;5091593;28;20039;-51
2022/04/06 02:27:49;;;;;;;16.23;9.07;;;;;;;0.48;70.27;93071.56;5091453;28;20028;-49
2022/04/06 02:30:17;;;;;;;11.30;7.65;;;;;;;0.31;70.33;93072.78;5091592;28;20020;-46
2022/04/06 02:32:43;;;;;;;14.93;8.77;;;;;;;0.36;70.22;93083.66;5091278;28;20084;-48
2022/04/06 02:35:08;;;;;;;16.95;10.13;;;;;;;0.37;70.00;93087.84;5091290;28;20020;-49
2022/04/06 02:37:34;;;;;;;15.50;9.30;;;;;;;0.41;69.62;93082.19;5090197;28;20024;-53
2022/04/06 02:39:59;;;;;;;14.90;9.02;;;;;;;0.47;69.99;93088.38;5095892;28;20459;-53
2022/04/06 02:42:25;;;;;;;13.82;7.47;;;;;;;0.32;70.49;93083.16;5105407;28;20527;-53
2022/04/06 02:44:50;;;;;;;21.88;9.25;;;;;;;0.25;70.68;93088.31;5096098;28;20485;-51
2022/04/06 02:47:15;;;;;;;17.75;8.63;;;;;;;0.26;70.50;93092.53;5108195;28;20027;-48
2022/04/06 02:49:41;;;;;;;10.82;7.40;;;;;;;0.27;70.67;93091.28;5110070;28;20015;-50
2022/04/06 02:52:07;;;;;;;13.55;8.40;;;;;;;0.18;70.95;93091.53;5090941;28;20035;-50
2022/04/06 02:54:33;;;;;;;11.18;6.82;;;;;;;0.06;71.06;93084.59;5091171;28;20103;-49
2022/04/06 02:56:58;;;;;;;12.63;6.53;;;;;;;-0.13;71.07;93087.03;5091122;28;20043;-48
2022/04/06 02:59:23;;;;;;;7.78;5.85;;;;;;;-0.04;71.03;93101.09;5090460;28;20032;-48
2022/04/06 03:01:49;;;;;;;9.82;6.60;;;;;;;0.16;70.98;93104.84;5090885;28;20023;-48
2022/04/06 03:04:14;;;;;;;9.77;6.80;;;;;;;0.02;70.85;93108.50;5090786;28;20020;-49
2022/04/06 03:06:40;;;;;;;12.05;7.90;;;;;;;0.01;71.02;93102.34;5090750;28;20020;-49
2022/04/06 03:09:06;;;;;;;13.23;8.70;;;;;;;0.09;70.72;93113.47;5090559;28;20405;-53
2022/04/06 03:11:32;;;;;;;16.13;9.77;;;;;;;0.04;71.29;93108.75;5090899;28;20020;-53
2022/04/06 03:13:57;;;;;;;11.75;8.10;;;;;;;0.17;71.18;93109.06;5090554;28;20027;-53
2022/04/06 03:16:23;;;;;;;14.73;8.73;;;;;;;0.05;70.11;93108.28;5090747;28;20027;-51
2022/04/06 03:18:48;;;;;;;13.30;8.60;;;;;;;0.02;70.86;93114.69;5090706;28;20081;-50
2022/04/06 03:21:14;;;;;;;16.27;8.73;;;;;;;0.16;70.87;93118.41;5090766;28;20031;-48
2022/04/06 03:23:39;;;;;;;14.48;9.10;;;;;;;0.15;70.67;93122.38;5090647;28;20576;-50
2022/04/06 03:26:04;;;;;;;11.80;7.82;;;;;;;-0.28;71.40;93119.03;5090489;28;20016;-48
2022/04/06 03:28:30;;;;;;;13.80;7.82;;;;;;;-0.25;71.61;93120.75;5090571;28;20481;-54
2022/04/06 03:30:55;;;;;;;15.68;9.13;;;;;;;0.02;71.06;93111.97;5090780;28;20031;-53
2022/04/06 03:33:21;;;;;;;15.68;8.32;;;;;;;0.13;71.00;93119.41;5090395;28;20024;-52
2022/04/06 03:35:47;;;;;;;16.92;9.30;;;;;;;0.07;70.64;93119.38;5090688;28;20027;-54
2022/04/06 03:38:13;;;;;;;11.65;7.38;;;;;;;0.00;70.30;93120.59;5090273;28;20107;-55
2022/04/06 03:40:38;;;;;;;8.48;6.10;;;;;;;-0.15;70.90;93122.00;5090515;28;20096;-55
2022/04/06 03:43:04;;;;;;;10.95;6.25;;;;;;;-0.29;70.64;93118.28;5090555;28;20031;-54
2022/04/06 03:45:29;;;;;;;8.68;6.20;;;;;;;-0.38;70.50;93121.19;5090233;28;20042;-54
2022/04/06 03:47:54;;;;;;;8.48;5.50;;;;;;;-0.50;71.39;93132.47;5073982;28;20028;-54
2022/04/06 03:50:20;;;;;;;9.80;6.72;;;;;;;-0.56;71.66;93121.59;5070093;28;20028;-56
2022/04/06 03:52:45;;;;;;;18.42;8.25;;;;;;;-0.35;71.75;93127.63;5069892;28;20032;-53
2022/04/06 03:55:11;;;;;;;17.25;10.18;;;;;;;-0.13;70.72;93125.72;5070285;28;20024;-56
2022/04/06 03:57:37;;;;;;;19.52;10.07;;;;;;;-0.21;71.21;93141.00;5069584;28;20494;-54
2022/04/06 04:00:05;;;;;;;18.25;11.32;;;;;;;-0.16;71.48;93129.44;5069896;28;20033;-54
2022/04/06 04:02:31;;;;;;;19.52;10.35;;;;;;;-0.31;71.60;93126.16;5070049;28;20028;-55
2022/04/06 04:04:56;;;;;;;21.73;12.48;;;;;;;-0.16;71.36;93140.28;5070136;28;20408;-51
2022/04/06 04:07:22;;;;;;;25.48;12.27;;;;;;;-0.41;71.81;93140.41;5069962;28;20024;-49
2022/04/06 04:09:49;;;;;;;17.35;9.57;;;;;;;-0.36;72.52;93140.44;5070091;28;20013;-48
2022/04/06 04:12:15;;;;;;;15.43;10.57;;;;;;;-0.30;72.06;93141.19;5069787;28;20025;-48
2022/04/06 04:14:40;;;;;;;17.85;11.25;;;;;;;-0.17;72.20;93138.03;5069673;28;20020;-54
2022/04/06 04:17:06;;;;;;;17.48;9.48;;;;;;;-0.08;71.78;93148.69;5070012;28;20020;-48
2022/04/06 04:19:32;;;;;;;26.10;14.52;;;;;;;-0.16;71.48;93137.56;5070074;28;20413;-48
2022/04/06 04:21:57;;;;;;;30.60;17.00;;;;;;;-0.28;70.74;93146.88;5069782;28;20023;-44
2022/04/06 04:24:23;;;;;;;20.73;14.23;;;;;;;-0.22;71.15;93155.78;5069538;28;20039;-46
2022/04/06 04:26:48;;;;;;;28.95;15.90;;;;;;;-0.05;71.01;93147.72;5069816;28;20035;-49
2022/04/06 04:29:15;;;;;;;27.83;15.55;;;;;;;-0.01;71.21;93148.22;5069834;28;20016;-47
2022/04/06 04:31:40;;;;;;;23.38;13.43;;;;;;;0.16;70.48;93153.69;5069725;28;20540;-46
2022/04/06 04:34:06;;;;;;;18.67;12.73;;;;;;;0.00;70.20;93158.59;5069931;28;20020;-49
2022/04/06 04:36:31;;;;;;;22.15;13.60;;;;;;;-0.10;70.28;93160.03;5072027;28;20086;-52
2022/04/06 04:38:57;;;;;;;12.57;9.13;;;;;;;-0.28;70.37;93163.16;5073366;28;20382;-57
2022/04/06 04:41:22;;;;;;;17.45;9.05;;;;;;;-0.29;70.58;93167.09;5073548;28;20455;-59
2022/04/06 04:43:50;;;;;;;16.30;9.15;;;;;;;-0.22;70.54;93172.03;5086644;28;20524;-59
2022/04/06 04:46:15;;;;;;;14.70;10.02;;;;;;;-0.06;71.08;93174.09;5093414;28;20019;-58
2022/04/06 04:48:41;;;;;;;20.70;11.57;;;;;;;-0.04;71.05;93185.22;5092329;28;20506;-58
2022/04/06 04:51:06;;;;;;;29.00;15.80;;;;;;;0.24;70.40;93173.72;5093293;28;20470;-58
2022/04/06 04:53:33;;;;;;;33.10;24.48;;;;;;;0.27;70.61;93189.78;5093490;28;20138;-53
2022/04/06 04:55:58;;;;;;;31.95;20.02;;;;;;;0.23;70.40;93189.28;5093335;28;20020;-54
2022/04/06 04:58:24;;;;;;;44.25;24.52;;;;;;;0.64;69.63;93192.34;5081648;28;20020;-51
2022/04/06 05:00:49;;;;;;;117.28;62.00;;;;;;;0.84;68.59;93189.41;5072520;28;20457;-52
2022/04/06 05:03:15;;;;;;;51.22;28.10;;;;;;;0.91;68.77;93191.63;5072796;28;20036;-47
2022/04/06 05:05:43;;;;;;;38.20;21.33;;;;;;;0.93;69.35;93194.63;5072520;28;20024;-46
2022/04/06 05:08:09;;;;;;;35.37;18.13;;;;;;;0.94;68.81;93196.09;5073122;28;20024;-49
2022/04/06 05:10:34;;;;;;;36.50;20.83;;;;;;;1.14;68.46;93204.03;5072233;28;20443;-51
2022/04/06 05:13:00;;;;;;;34.33;19.38;;;;;;;1.36;68.02;93204.03;5086069;28;20028;-48
2022/04/06 05:15:26;;;;;;;36.10;18.77;;;;;;;1.46;67.16;93201.78;5097419;28;20031;-45
2022/04/06 05:17:51;;;;;;;34.38;19.27;;;;;;;1.18;68.64;93209.97;5096045;28;20024;-47
2022/04/06 05:20:17;;;;;;;35.67;19.95;;;;;;;0.94;69.66;93193.38;5113470;28;20035;-50
2022/04/06 05:22:43;;;;;;;42.35;21.08;;;;;;;1.36;70.75;93217.63;5113122;28;20148;-51
2022/04/06 05:25:09;;;;;;;44.75;22.73;;;;;;;1.37;70.14;93218.34;5113057;28;20103;-48
2022/04/06 05:27:48;;;;;;;39.20;21.67;;;;;;;1.52;69.77;93210.66;5112316;27;20133;-49
2022/04/06 05:30:16;;;;;;;45.92;24.85;;;;;;;1.83;68.77;93218.56;5112431;28;20023;-51
2022/04/06 05:32:42;;;;;;;41.00;22.60;;;;;;;2.00;68.65;93226.69;5112495;28;20066;-50
2022/04/06 05:35:09;;;;;;;38.35;18.05;;;;;;;2.33;67.64;93234.00;5112272;28;20024;-60
2022/04/06 05:37:36;;;;;;;31.60;18.83;;;;;;;2.71;66.78;93222.94;5112733;28;20019;-57
2022/04/06 05:40:02;;;;;;;63.80;32.70;;;;;;;3.62;64.75;93233.50;5098119;28;20118;-55
2022/04/06 05:42:28;;;;;;;37.35;21.77;;;;;;;4.29;62.93;93226.16;5072417;28;20033;-51
2022/04/06 05:44:53;;;;;;;68.38;35.20;;;;;;;4.76;60.96;93231.31;5071864;28;20040;-49
2022/04/06 05:47:19;;;;;;;101.70;44.97;;;;;;;5.04;59.91;93231.72;5076028;28;20028;-50
2022/04/06 05:49:44;;;;;;;79.38;38.95;;;;;;;5.27;59.20;93232.88;5103282;28;20161;-54
2022/04/06 05:52:10;;;;;;;80.63;43.05;;;;;;;5.52;59.08;93231.50;5092292;28;20580;-54
2022/04/06 05:54:36;;;;;;;81.75;43.65;;;;;;;5.83;57.89;93208.09;5091248;28;20020;-51
2022/04/06 05:57:03;;;;;;;66.35;37.28;;;;;;;6.70;56.02;93220.72;5091833;28;20016;-50
2022/04/06 05:59:28;;;;;;;48.60;29.27;;;;;;;7.33;53.35;93230.63;5091131;28;20052;-51
2022/04/06 06:01:54;;;;;;;46.53;26.83;;;;;;;7.40;53.67;93224.47;5094764;28;20511;-51
2022/04/06 06:04:19;;;;;;;32.95;20.25;;;;;;;7.64;54.14;93227.66;5092210;28;20471;-49
2022/04/06 06:06:44;;;;;;;51.80;26.27;;;;;;;8.28;53.24;93225.13;5091995;28;20480;-49
2022/04/06 06:09:10;;;;;;;66.47;36.35;;;;;;;9.04;50.69;93226.28;5104651;28;20020;-49
2022/04/06 06:11:36;;;;;;;48.17;28.55;;;;;;;9.41;49.47;93226.97;5107533;28;20095;-46
2022/04/06 06:14:02;;;;;;;14.93;10.75;;;;;;;9.29;50.02;93223.81;5112203;28;20032;-47
2022/04/06 06:16:28;;;;;;;10.88;7.15;;;;;;;9.58;50.69;93203.16;5111715;28;20088;-48
2022/04/06 06:18:55;;;;;;;9.18;6.32;;;;;;;11.13;46.68;93217.22;5112331;28;20028;-48
2022/04/06 06:21:21;;;;;;;8.68;6.28;;;;;;;12.87;40.89;93208.50;5112008;28;20031;-47
2022/04/06 06:23:46;;;;;;;13.35;6.88;;;;;;;14.18;39.53;93212.63;5112123;28;20023;-46
2022/04/06 06:26:12;;;;;;;19.80;6.50;;;;;;;15.57;36.40;93209.13;5111453;28;20074;-46
2022/04/06 06:28:39;;;;;;;12.73;5.40;;;;;;;16.62;32.48;93198.44;5111711;28;20024;-48
2022/04/06 06:31:05;;;;;;;9.23;5.70;;;;;;;17.95;30.68;93207.13;5111588;28;20542;-47
2022/04/06 06:33:30;;;;;;;12.07;7.35;;;;;;;18.99;29.24;93203.00;5111672;28;20020;-47
2022/04/06 06:35:56;;;;;;;22.83;7.35;;;;;;;19.52;27.14;93197.06;5101379;28;20035;-49
2022/04/06 06:38:21;;;;;;;21.25;16.15;;;;;;;20.20;25.99;93202.25;5091273;28;20103;-48
2022/04/06 06:40:48;;;;;;;25.77;20.23;;;;;;;20.63;26.25;93202.47;5091071;28;20031;-48
2022/04/06 06:43:14;;;;;;;10.82;9.73;;;;;;;20.42;25.88;93212.59;5090661;28;20031;-49
2022/04/06 06:45:40;;;;;;;15.95;8.40;;;;;;;19.89;27.20;93205.44;5090959;28;20024;-48
2022/04/06 06:48:06;;;;;;;17.00;8.80;;;;;;;20.29;26.84;93206.97;5090921;28;20035;-51
2022/04/06 06:50:31;;;;;;;15.82;9.55;;;;;;;20.97;26.20;93216.22;5091125;28;20020;-47
2022/04/06 06:52:56;;;;;;;14.90;10.35;;;;;;;21.74;25.22;93206.09;5091045;28;20027;-48
2022/04/06 06:55:22;;;;;;;41.58;33.38;;;;;;;22.20;23.77;93202.00;5093507;28;20072;-52
2022/04/06 06:57:48;;;;;;;17.48;11.65;;;;;;;22.32;23.34;93208.91;5098787;28;20062;-47
2022/04/06 07:00:15;;;;;;;44.15;22.10;;;;;;;21.95;23.47;93205.72;5082351;28;20094;-48
2022/04/06 07:02:41;;;;;;;27.67;15.40;;;;;;;22.39;23.79;93199.38;5067867;28;20028;-50
2022/04/06 07:05:07;;;;;;;15.15;9.63;;;;;;;23.23;23.55;93193.31;5067178;28;20020;-48
2022/04/06 07:07:33;;;;;;;7.63;5.70;;;;;;;24.30;21.23;93190.03;5071513;28;20030;-48
2022/04/06 07:10:00;;;;;;;9.20;6.30;;;;;;;24.54;20.84;93184.59;5089080;28;20020;-49
2022/04/06 07:12:25;;;;;;;7.25;3.20;;;;;;;24.86;19.73;93191.50;5089729;28;20038;-49
2022/04/06 07:14:51;;;;;;;5.65;3.10;;;;;;;25.40;20.90;93195.56;5091154;28;20111;-49
2022/04/06 07:17:17;;;;;;;3.45;2.75;;;;;;;25.38;20.69;93187.72;5107953;28;20403;-48
2022/04/06 07:19:45;;;;;;;11.20;5.90;;;;;;;26.27;20.97;93196.41;5111112;28;20020;-50
2022/04/06 07:22:10;;;;;;;8.25;6.63;;;;;;;27.02;18.18;93179.59;5111102;28;20023;-51
2022/04/06 07:24:36;;;;;;;6.63;4.55;;;;;;;27.00;18.43;93194.44;5098545;28;20028;-50
2022/04/06 07:27:02;;;;;;;7.63;5.50;;;;;;;27.55;17.34;93193.13;5088433;28;20024;-51
2022/04/06 07:29:27;;;;;;;4.53;2.83;;;;;;;27.65;16.64;93193.44;5088539;28;20024;-49
2022/04/06 07:31:52;;;;;;;7.43;3.67;;;;;;;26.92;17.47;93199.84;5088461;28;20027;-48
2022/04/06 07:34:18;;;;;;;4.13;2.78;;;;;;;27.03;16.71;93193.09;5087211;28;20377;-48
2022/04/06 07:36:43;;;;;;;5.60;3.85;;;;;;;27.09;17.17;93186.91;5087904;28;20031;-48
2022/04/06 07:39:09;;;;;;;7.90;4.10;;;;;;;27.88;17.37;93197.56;5087903;28;20630;-49
2022/04/06 07:41:34;;;;;;;10.85;7.18;;;;;;;28.73;16.87;93191.88;5088123;28;20024;-51
2022/04/06 07:44:00;;;;;;;80.65;47.25;;;;;;;28.95;16.26;93172.47;5086636;28;20035;-50
2022/04/06 07:46:26;;;;;;;6.25;3.95;;;;;;;29.31;15.39;93192.41;5087519;28;20028;-48
2022/04/06 07:48:51;;;;;;;17.92;9.70;;;;;;;29.29;15.43;93189.53;5071443;28;20024;-51
2022/04/06 07:51:17;;;;;;;15.73;9.20;;;;;;;29.42;16.18;93191.94;5070251;28;20029;-49
2022/04/06 07:53:43;;;;;;;10.70;5.05;;;;;;;29.99;17.02;93188.75;5070166;28;20409;-51
2022/04/06 07:56:08;;;;;;;5.53;4.22;;;;;;;30.45;15.33;93191.69;5070169;28;20024;-52
2022/04/06 07:58:34;;;;;;;13.52;4.97;;;;;;;29.94;16.36;93184.44;5069790;28;20382;-51
2022/04/06 08:01:02;;;;;;;10.95;7.32;;;;;;;30.02;15.47;93183.13;5072835;28;20028;-46
2022/04/06 08:03:28;;;;;;;10.88;4.93;;;;;;;30.58;16.23;93189.78;5086351;28;20574;-49
2022/04/06 08:05:54;;;;;;;4.18;3.03;;;;;;;30.76;16.32;93187.19;5080181;28;20054;-51
2022/04/06 08:08:19;;;;;;;5.63;2.83;;;;;;;30.73;14.23;93194.97;5079658;28;20017;-51
2022/04/06 08:10:45;;;;;;;6.28;3.00;;;;;;;30.86;14.93;93190.22;5079974;28;20013;-53
2022/04/06 08:13:12;;;;;;;6.03;2.45;;;;;;;31.15;15.05;93191.31;5085557;28;20024;-52
2022/04/06 08:15:37;;;;;;;6.57;4.30;;;;;;;31.87;14.71;93185.78;5087035;28;20532;-47
2022/04/06 08:18:03;;;;;;;10.32;3.33;;;;;;;32.09;13.75;93186.75;5092505;28;20062;-48
2022/04/06 08:20:28;;;;;;;7.38;3.58;;;;;;;32.16;13.81;93193.25;5094734;28;20027;-48
2022/04/06 08:22:55;;;;;;;10.05;3.20;;;;;;;32.07;14.72;93183.88;5086245;28;20153;-48
2022/04/06 08:25:20;;;;;;;3.72;2.42;;;;;;;32.52;11.81;93187.88;5083430;28;20012;-51
2022/04/06 08:27:46;;;;;;;3.42;2.45;;;;;;;32.44;12.59;93182.06;5089691;28;20570;-49
2022/04/06 08:30:13;;;;;;;3.58;2.38;;;;;;;32.14;13.08;93184.63;5082329;28;20009;-47
2022/04/06 08:32:38;;;;;;;5.93;4.28;;;;;;;32.43;13.92;93177.03;5085283;28;20028;-50
2022/04/06 08:35:04;;;;;;;15.27;3.22;;;;;;;33.13;12.24;93182.59;5082553;28;20091;-47
2022/04/06 08:37:30;;;;;;;3.83;2.65;;;;;;;32.41;13.09;93183.47;5083019;28;20081;-48
2022/04/06 08:39:56;;;;;;;9.88;2.95;;;;;;;32.75;12.91;93191.59;5084838;28;20028;-52
2022/04/06 08:42:22;;;;;;;7.30;2.53;;;;;;;32.97;13.04;93186.03;5082599;28;20024;-48
2022/04/06 08:44:48;;;;;;;2.65;1.92;;;;;;;33.46;12.65;93184.19;5082691;28;20032;-50
2022/04/06 08:47:14;;;;;;;3.00;2.50;;;;;;;32.78;11.77;93182.34;5085153;28;20016;-48
2022/04/06 08:49:45;;;;;;;4.45;2.78;;;;;;;33.27;13.25;93183.38;5082693;28;20024;-50
2022/04/06 08:52:12;;;;;;;7.03;3.15;;;;;;;32.10;13.50;93176.03;5081563;28;20032;-51
2022/04/06 08:54:38;;;;;;;3.20;2.58;;;;;;;32.14;13.45;93170.34;5083294;28;20404;-48
2022/04/06 08:57:05;;;;;;;4.63;2.90;;;;;;;32.69;12.73;93183.72;5083381;28;20646;-47
2022/04/06 08:59:34;;;;;;;6.65;2.78;;;;;;;32.75;13.25;93172.31;5083028;28;20040;-48
2022/04/06 09:01:59;;;;;;;12.52;3.58;;;;;;;32.56;13.71;93176.47;5082397;28;20494;-47
2022/04/06 09:04:26;;;;;;;8.57;4.45;;;;;;;32.85;12.90;93178.09;5081013;28;20026;-47
2022/04/06 09:06:51;;;;;;;7.75;3.95;;;;;;;32.75;12.83;93180.88;5080650;28;20039;-48
2022/04/06 09:09:24;;;;;;;21.77;3.95;;;;;;;32.63;13.55;93165.78;5082569;28;20016;-48
2022/04/06 09:11:50;;;;;;;3.63;2.53;;;;;;;33.33;13.17;93171.25;5083433;28;20034;-48
2022/04/06 09:14:16;;;;;;;7.25;2.97;;;;;;;32.94;13.03;93169.56;5084851;28;20008;-48
2022/04/06 09:16:41;;;;;;;7.90;4.30;;;;;;;32.82;13.55;93161.63;5092734;28;20069;-49
2022/04/06 09:19:12;;;;;;;6.57;2.80;;;;;;;32.95;13.42;93159.56;5092966;28;20104;-52
2022/04/06 09:21:43;;;;;;;6.93;2.58;;;;;;;33.22;12.86;93161.91;5092653;28;20027;-47
2022/04/06 09:24:19;;;;;;;3.03;2.40;;;;;;;33.29;13.00;93159.75;5087081;28;20025;-55
2022/04/06 09:26:57;;;;;;;5.30;2.50;;;;;;;33.44;12.96;93149.81;5072528;28;20021;-57
2022/04/06 09:29:23;;;;;;;6.78;2.38;;;;;;;33.10;13.38;93155.38;5072205;28;20035;-55
2022/04/06 09:31:49;;;;;;;2.53;2.33;;;;;;;32.89;13.24;93155.25;5072572;28;20033;-57
2022/04/06 09:34:15;;;;;;;4.45;2.60;;;;;;;33.33;13.29;93151.91;5072530;28;20032;-52
2022/04/06 09:36:41;;;;;;;3.65;2.63;;;;;;;32.76;13.03;93142.31;5072212;28;20028;-56
2022/04/06 09:39:07;;;;;;;4.43;2.65;;;;;;;32.57;13.06;93125.75;5072612;28;20027;-56
2022/04/06 09:41:34;;;;;;;8.00;2.85;;;;;;;32.72;13.55;93132.97;5071075;28;20099;-57
2022/04/06 09:47:38;;;;;;;5.45;2.72;;;;;;;33.86;13.18;93129.19;5072556;28;20496;-57
2022/04/06 09:50:20;;;;;;;4.88;2.35;;;;;;;33.98;12.25;93126.38;5072991;28;20511;-53
2022/04/06 09:52:47;;;;;;;7.90;3.15;;;;;;;33.47;12.72;93136.94;5091626;28;20485;-55
2022/04/06 09:55:16;;;;;;;8.13;2.78;;;;;;;34.10;11.77;93129.97;5092107;28;20028;-57
2022/04/06 09:57:45;;;;;;;10.77;7.20;;;;;;;34.56;13.23;93117.09;5091734;28;20488;-54
2022/04/06 10:00:13;;;;;;;15.18;8.88;;;;;;;34.44;13.01;93122.84;5091986;28;20040;-56
2022/04/06 10:02:40;;;;;;;4.43;2.38;;;;;;;33.96;11.92;93117.78;5092077;28;20032;-51
2022/04/06 10:05:06;;;;;;;5.35;3.75;;;;;;;33.87;12.82;93107.72;5093606;28;20626;-55
2022/04/06 10:07:33;;;;;;;9.73;5.70;;;;;;;33.27;13.11;93122.53;5111236;28;20088;-52
2022/04/06 10:09:59;;;;;;;13.88;7.28;;;;;;;33.33;13.18;93108.28;5109985;28;20647;-56
2022/04/06 10:12:26;;;;;;;9.48;4.60;;;;;;;33.30;13.42;93109.69;5107671;28;20076;-53
2022/04/06 10:14:53;;;;;;;4.00;2.88;;;;;;;32.26;11.96;93099.06;5074257;28;20029;-53
2022/04/06 10:17:20;;;;;;;6.95;5.25;;;;;;;32.26;12.71;93079.06;5110761;28;20483;-55
2022/04/06 10:19:48;;;;;;;4.13;3.50;;;;;;;32.70;13.46;93092.94;5091645;28;20066;-55
2022/04/06 10:22:20;;;;;;;3.10;2.67;;;;;;;32.75;13.31;93091.53;5091896;28;20028;-50
2022/04/06 10:24:59;;;;;;;3.90;3.05;;;;;;;33.51;12.90;93091.91;5090295;28;20114;-55
2022/04/06 10:27:42;;;;;;;4.35;3.15;;;;;;;32.75;12.45;93092.25;5090040;28;20488;-49
2022/04/06 10:30:23;;;;;;;3.88;2.75;;;;;;;32.12;13.50;93093.22;5095342;28;20157;-55
2022/04/06 10:32:53;;;;;;;4.00;2.35;;;;;;;32.89;13.03;93083.75;5104583;28;20066;-50
2022/04/06 10:35:35;;;;;;;3.13;2.63;;;;;;;32.77;13.53;93089.41;5111872;28;20027;-51
2022/04/06 10:38:03;;;;;;;2.55;2.20;;;;;;;32.88;12.59;93076.59;5112090;28;20030;-50
2022/04/06 10:40:55;;;;;;;3.15;2.28;;;;;;;33.48;12.02;93072.56;5111627;28;20458;-52
2022/04/06 10:43:40;;;;;;;4.70;3.20;;;;;;;33.48;12.39;93072.56;5111954;28;20031;-54
2022/04/06 10:46:10;;;;;;;4.43;1.98;;;;;;;33.18;14.15;93072.47;5111312;27;20030;-52
2022/04/06 10:48:58;;;;;;;7.35;4.55;;;;;;;33.10;13.58;93061.69;5111138;28;20030;-51
2022/04/06 10:51:33;;;;;;;6.93;3.55;;;;;;;33.75;11.98;93071.19;5111790;28;20107;-51
2022/04/06 10:54:20;;;;;;;3.58;2.20;;;;;;;33.70;11.83;93054.72;5111408;28;20544;-49
2022/04/06 10:56:52;;;;;;;2.70;1.98;;;;;;;33.61;11.96;93065.44;5100278;28;20042;-51
2022/04/06 10:59:22;;;;;;;5.80;1.65;;;;;;;33.45;12.75;93057.50;5093012;27;20048;-50
2022/04/06 11:01:49;;;;;;;3.03;1.75;;;;;;;32.71;10.77;93055.06;5091254;28;20081;-52
2022/04/06 11:04:20;;;;;;;3.95;1.42;;;;;;;32.54;11.37;93049.97;5089888;28;20024;-50
2022/04/06 11:06:49;;;;;;;3.22;1.52;;;;;;;31.78;11.91;93047.22;5090716;28;20097;-51
2022/04/06 11:12:15;;;;;;;3.53;2.40;;;;;;;32.28;13.19;93024.78;5089852;28;20312;-49
2022/04/06 11:14:42;;;;;;;2.42;1.67;;;;;;;32.36;11.67;93032.66;5079838;28;20030;-50
2022/04/06 11:17:41;;;;;;;7.03;3.58;;;;;;;31.80;14.40;93030.09;5086016;28;20024;-50
2022/04/06 11:20:28;;;;;;;9.57;6.35;;;;;;;31.54;14.50;93032.72;5080705;28;20036;-49
2022/04/06 11:22:55;;;;;;;3.67;2.10;;;;;;;31.14;14.96;93027.31;5082001;28;20452;-50
2022/04/06 11:25:28;;;;;;;5.93;1.65;;;;;;;30.97;14.76;93028.56;5076529;28;20062;-51
2022/04/06 11:28:07;;;;;;;1.63;1.52;;;;;;;31.04;14.34;93030.78;5070422;28;20115;-49
2022/04/06 11:30:34;;;;;;;2.95;1.70;;;;;;;30.26;12.23;93021.91;5070088;28;20062;-55
2022/04/06 11:33:01;;;;;;;2.60;1.90;;;;;;;30.56;14.99;93018.75;5070225;28;20506;-57
2022/04/06 11:35:28;;;;;;;5.93;1.55;;;;;;;29.90;14.83;93029.91;5069104;28;20033;-52
2022/04/06 11:37:54;;;;;;;3.50;1.70;;;;;;;29.10;12.55;93017.84;5070016;28;20032;-50
2022/04/06 11:40:21;;;;;;;3.65;1.60;;;;;;;28.43;12.83;93004.44;5070352;28;20020;-54